createdAt,value
2024-01-07T00:02:59.599Z,68.30
2024-01-07T00:08:00.994Z,68.59
2024-01-07T00:13:02.489Z,67.75
2024-01-07T00:18:04.173Z,68.23
2024-01-07T00:23:05.726Z,68.28
2024-01-07T00:28:07.148Z,68.18
2024-01-07T00:33:08.671Z,68.80
2024-01-07T00:38:10.058Z,67.72
2024-01-07T00:43:11.504Z,67.99
2024-01-07T00:48:13.342Z,68.22
2024-01-07T00:53:14.768Z,68.10
2024-01-07T00:58:16.265Z,68.00
2024-01-07T01:03:17.796Z,68.45
2024-01-07T01:08:19.379Z,67.76
2024-01-07T01:13:20.774Z,67.86
2024-01-07T01:18:22.305Z,68.30
2024-01-07T01:23:23.871Z,68.48
2024-01-07T01:28:25.243Z,67.90
2024-01-07T01:33:26.768Z,68.34
2024-01-07T01:38:28.275Z,68.59
2024-01-07T01:43:30.241Z,68.29
2024-01-07T01:48:31.869Z,68.26
2024-01-07T01:53:34.726Z,68.53
2024-01-07T01:58:37.620Z,67.82
2024-01-07T02:03:39.385Z,68.42
2024-01-07T02:08:41.563Z,68.00
2024-01-07T02:13:43.498Z,68.54
2024-01-07T02:18:46.701Z,69.02
2024-01-07T02:23:48.757Z,69.04
2024-01-07T02:28:50.396Z,69.05
2024-01-07T02:33:52.620Z,68.95
2024-01-07T02:38:54.555Z,69.02
2024-01-07T02:43:56.394Z,69.30
2024-01-07T02:48:58.567Z,68.83
2024-01-07T02:54:00.624Z,70.14
2024-01-07T02:59:02.534Z,69.48
2024-01-07T03:04:09.086Z,70.21
2024-01-07T03:09:11.607Z,70.06
2024-01-07T03:14:13.743Z,70.61
2024-01-07T03:19:15.851Z,70.80
2024-01-07T03:24:19.425Z,70.65
2024-01-07T03:29:24.053Z,71.49
2024-01-07T03:34:26.002Z,72.33
2024-01-07T03:39:39.071Z,72.24
2024-01-07T03:44:41.288Z,71.77
2024-01-07T03:49:43.313Z,72.26
2024-01-07T03:54:45.042Z,72.00
2024-01-07T03:59:46.701Z,71.90
2024-01-07T04:04:53.235Z,71.68
2024-01-07T04:09:55.031Z,71.39
2024-01-07T04:14:56.787Z,72.61
2024-01-07T04:19:59.087Z,71.62
2024-01-07T04:25:01.010Z,71.80
2024-01-07T04:30:03.370Z,72.50
2024-01-07T04:35:08.614Z,71.91
2024-01-07T04:40:14.136Z,72.87
2024-01-07T04:45:17.555Z,72.27
2024-01-07T04:50:21.182Z,72.34
2024-01-07T04:55:22.785Z,72.00
2024-01-07T05:00:24.758Z,72.26
2024-01-07T05:05:26.654Z,71.89
2024-01-07T05:10:28.214Z,72.03
2024-01-07T05:15:29.666Z,71.76
2024-01-07T05:20:31.162Z,71.71
2024-01-07T05:25:32.620Z,72.12
2024-01-07T05:30:34.290Z,72.13
2024-01-07T05:35:38.949Z,71.63
2024-01-07T05:40:40.793Z,71.46
2024-01-07T05:45:42.761Z,71.71
2024-01-07T05:50:44.720Z,71.77
2024-01-07T05:55:46.503Z,71.88
2024-01-07T06:00:48.820Z,71.64
2024-01-07T06:05:50.950Z,71.95
2024-01-07T06:10:55.747Z,71.60
2024-01-07T06:15:57.796Z,71.60
2024-01-07T06:20:59.532Z,71.26
2024-01-07T06:26:01.375Z,71.45
2024-01-07T06:31:06.652Z,71.63
2024-01-07T06:36:09.221Z,71.57
2024-01-07T06:41:12.519Z,71.49
2024-01-07T06:46:14.038Z,71.63
2024-01-07T06:51:15.757Z,71.38
2024-01-07T06:56:17.152Z,70.40
2024-01-07T07:01:23.165Z,70.93
2024-01-07T07:06:25.432Z,71.17
2024-01-07T07:11:27.032Z,70.44
2024-01-07T07:16:28.398Z,70.21
2024-01-07T07:21:29.817Z,69.97
2024-01-07T07:26:31.316Z,69.88
2024-01-07T07:31:32.792Z,70.31
2024-01-07T07:36:34.390Z,69.60
2024-01-07T07:41:35.803Z,69.47
2024-01-07T07:46:37.258Z,69.94
2024-01-07T07:51:40.054Z,69.63
2024-01-07T07:56:41.454Z,70.40
2024-01-07T08:01:43.060Z,69.94
2024-01-07T08:06:46.134Z,69.49
2024-01-07T08:11:47.619Z,70.34
2024-01-07T08:16:49.009Z,70.15
2024-01-07T08:21:50.507Z,69.82
2024-01-07T08:26:52.929Z,70.38
2024-01-07T08:31:54.397Z,70.25
2024-01-07T08:36:56.108Z,70.16
2024-01-07T08:41:57.555Z,69.57
2024-01-07T08:47:01.415Z,69.76
2024-01-07T08:52:03.379Z,70.12
2024-01-07T08:57:05.020Z,69.44
2024-01-07T09:02:06.496Z,69.15
2024-01-07T09:07:08.006Z,69.21
2024-01-07T09:12:09.658Z,68.64
2024-01-07T09:17:11.156Z,69.03
2024-01-07T09:22:13.054Z,68.12
2024-01-07T09:27:15.500Z,68.01
2024-01-07T09:32:16.912Z,68.46
2024-01-07T09:37:18.685Z,67.64
2024-01-07T09:42:20.170Z,67.96
2024-01-07T09:47:21.725Z,67.82
2024-01-07T09:52:23.273Z,67.31
2024-01-07T09:57:24.764Z,67.42
2024-01-07T10:02:26.303Z,67.68
2024-01-07T10:07:27.921Z,66.68
2024-01-07T10:12:29.480Z,66.96
2024-01-07T10:17:30.933Z,66.64
2024-01-07T10:22:32.740Z,66.68
2024-01-07T10:27:37.849Z,66.46
2024-01-07T10:32:42.634Z,66.96
2024-01-07T10:37:46.245Z,67.09
2024-01-07T10:42:49.464Z,66.52
2024-01-07T10:47:54.630Z,66.61
2024-01-07T10:53:08.347Z,66.26
2024-01-07T10:58:10.971Z,66.20
2024-01-07T11:03:19.724Z,66.28
2024-01-07T11:08:24.543Z,66.43
2024-01-07T11:13:41.787Z,65.51
2024-01-07T11:19:03.451Z,65.99
2024-01-07T11:24:05.755Z,65.78
2024-01-07T11:29:10.411Z,65.48
2024-01-07T11:34:12.449Z,65.01
2024-01-07T11:39:14.170Z,65.72
2024-01-07T11:44:16.055Z,65.61
2024-01-07T11:49:18.472Z,65.31
2024-01-07T11:54:20.097Z,65.47
2024-01-07T11:59:21.510Z,65.41
2024-01-07T12:04:23.190Z,65.05
2024-01-07T12:09:25.353Z,65.00
2024-01-07T12:14:27.133Z,64.60
2024-01-07T12:19:29.476Z,64.98
2024-01-07T12:24:31.807Z,64.77
2024-01-07T12:29:33.401Z,65.08
2024-01-07T12:34:34.971Z,64.83
2024-01-07T12:39:36.428Z,64.91
2024-01-07T12:44:38.015Z,65.12
2024-01-07T12:49:39.717Z,64.51
2024-01-07T12:54:41.247Z,64.51
2024-01-07T12:59:42.691Z,64.35
2024-01-07T13:04:44.113Z,64.67
2024-01-07T13:09:45.905Z,64.62
2024-01-07T13:14:48.102Z,64.44
2024-01-07T13:19:49.698Z,64.82
2024-01-07T13:24:51.392Z,63.85
2024-01-07T13:29:52.917Z,64.20
2024-01-07T13:34:54.401Z,64.08
2024-01-07T13:39:55.890Z,64.01
2024-01-07T13:44:57.286Z,63.96
2024-01-07T13:49:58.756Z,63.22
2024-01-07T13:55:00.416Z,63.08
2024-01-07T14:00:06.598Z,62.75
2024-01-07T14:05:09.981Z,62.99
2024-01-07T14:10:11.660Z,63.33
2024-01-07T14:15:13.360Z,63.29
2024-01-07T14:20:14.804Z,62.75
2024-01-07T14:25:16.405Z,63.07
2024-01-07T14:30:17.963Z,63.45
2024-01-07T14:35:19.378Z,63.00
2024-01-07T14:40:20.822Z,62.98
2024-01-07T14:45:22.261Z,63.00
2024-01-07T14:50:29.809Z,62.99
2024-01-07T14:55:35.762Z,62.54
2024-01-07T15:00:37.347Z,62.46
2024-01-07T15:05:39.992Z,62.29
2024-01-07T15:10:42.553Z,62.24
2024-01-07T15:15:44.020Z,62.35
2024-01-07T15:20:46.592Z,61.83
2024-01-07T15:25:48.035Z,61.53
2024-01-07T15:30:49.527Z,61.72
2024-01-07T15:35:50.999Z,61.05
2024-01-07T15:40:52.357Z,61.29
2024-01-07T15:45:53.920Z,61.19
2024-01-07T15:50:55.332Z,61.45
2024-01-07T15:55:56.704Z,61.14
2024-01-07T16:01:01.743Z,60.64
2024-01-07T16:06:03.541Z,60.97
2024-01-07T16:11:05.935Z,60.25
2024-01-07T16:16:07.489Z,60.30
2024-01-07T16:21:10.932Z,60.73
2024-01-07T16:26:12.346Z,61.25
2024-01-07T16:31:13.859Z,60.62
2024-01-07T16:36:15.389Z,60.24
2024-01-07T16:41:16.760Z,59.78
2024-01-07T16:46:19.228Z,59.98
2024-01-07T16:51:21.234Z,59.72
2024-01-07T16:56:22.728Z,59.69
2024-01-07T17:01:26.541Z,59.95
2024-01-07T17:06:28.029Z,59.57
2024-01-07T17:11:29.837Z,59.29
2024-01-07T17:16:31.421Z,58.82
2024-01-07T17:21:33.121Z,58.62
2024-01-07T17:26:34.738Z,58.77
2024-01-07T17:31:36.202Z,59.04
2024-01-07T17:36:37.668Z,58.59
2024-01-07T17:41:39.159Z,59.05
2024-01-07T17:46:41.486Z,59.06
2024-01-07T17:51:45.841Z,58.36
2024-01-07T17:56:47.380Z,59.11
2024-01-07T18:01:49.526Z,57.91
2024-01-07T18:06:51.133Z,58.08
2024-01-07T18:11:52.645Z,58.07
2024-01-07T18:16:55.384Z,58.66
2024-01-07T18:21:56.860Z,57.96
2024-01-07T18:26:58.643Z,57.79
2024-01-07T18:32:00.399Z,57.55
2024-01-07T18:37:02.165Z,57.64
2024-01-07T18:42:03.874Z,57.33
2024-01-07T18:47:05.638Z,57.81
2024-01-07T18:52:13.565Z,57.53
2024-01-07T18:57:17.573Z,57.44
2024-01-07T19:02:19.301Z,57.68
2024-01-07T19:07:20.895Z,57.46
2024-01-07T19:12:22.544Z,57.43
2024-01-07T19:17:24.260Z,57.12
2024-01-07T19:22:26.979Z,57.57
2024-01-07T19:27:28.407Z,57.50
2024-01-07T19:32:29.909Z,57.57
2024-01-07T19:37:31.408Z,57.17
2024-01-07T19:42:32.964Z,57.25
2024-01-07T19:47:34.728Z,57.29
2024-01-07T19:52:37.259Z,56.95
2024-01-07T19:57:39.690Z,57.09
2024-01-07T20:02:41.457Z,57.55
2024-01-07T20:07:43.136Z,57.10
2024-01-07T20:12:45.212Z,56.94
2024-01-07T20:17:46.841Z,57.05
2024-01-07T20:22:48.333Z,56.99
2024-01-07T20:27:49.774Z,56.74
2024-01-07T20:32:51.357Z,57.06
2024-01-07T20:37:53.640Z,56.67
2024-01-07T20:42:55.385Z,56.97
2024-01-07T20:47:56.895Z,56.42
2024-01-07T20:52:58.554Z,56.35
2024-01-07T20:58:00.036Z,56.39
2024-01-07T21:03:01.489Z,56.54
2024-01-07T21:08:03.069Z,56.18
2024-01-07T21:13:08.658Z,56.59
2024-01-07T21:18:13.001Z,56.57
2024-01-07T21:23:16.982Z,55.96
2024-01-07T21:28:19.422Z,56.05
2024-01-07T21:33:20.977Z,56.08
2024-01-07T21:38:22.582Z,56.48
2024-01-07T21:43:24.770Z,56.16
2024-01-07T21:48:27.822Z,56.29
2024-01-07T21:53:29.295Z,56.09
2024-01-07T21:58:32.051Z,56.52
2024-01-07T22:03:33.786Z,55.95
2024-01-07T22:08:36.105Z,56.47
2024-01-07T22:13:37.520Z,56.38
2024-01-07T22:18:39.909Z,55.84
2024-01-07T22:23:41.322Z,56.43
2024-01-07T22:28:44.218Z,55.96
2024-01-07T22:33:47.636Z,56.34
2024-01-07T22:38:49.437Z,56.11
2024-01-07T22:43:51.105Z,56.16
2024-01-07T22:48:52.687Z,56.30
2024-01-07T22:53:54.125Z,56.38
2024-01-07T22:58:55.588Z,55.79
2024-01-07T23:03:58.244Z,55.11
2024-01-07T23:09:01.246Z,55.79
2024-01-07T23:14:04.863Z,55.89
2024-01-07T23:19:06.588Z,55.92
2024-01-07T23:24:08.128Z,55.68
2024-01-07T23:29:09.628Z,55.95
2024-01-07T23:34:11.287Z,55.38
2024-01-07T23:39:12.977Z,55.38
2024-01-07T23:44:14.773Z,55.71
2024-01-07T23:49:16.361Z,55.58
2024-01-07T23:54:18.614Z,55.25
2024-01-07T23:59:20.431Z,55.41
